Time;durP1;ratioP1;P1;durP2;ratioP2;P2;SDS_P1;SDS_P2;PMS_P1;PMS_P2;Temp;Humidity;BMP_temperature;BMP_pressure;BME280_temperature;BME280_humidity;BME280_pressure;Samples;Min_cycle;Max_cycle;Signal;HPM_P1;HPM_P2
2023/10/20 00:02:03;;;;;;;4.20;3.73;;;;;;;19.90;58.91;95960.63;6915095;28;20678;-79
2023/10/20 00:05:25;;;;;;;4.07;3.70;;;;;;;20.19;58.36;95973.44;6914587;28;20298;-79
2023/10/20 00:08:46;;;;;;;6.40;3.43;;;;;;;20.04;58.48;95957.63;6915801;28;20633;-79
2023/10/20 00:12:10;;;;;;;4.70;3.50;;;;;;;20.19;58.11;95962.50;6913724;28;20339;-79
2023/10/20 00:15:33;;;;;;;4.80;3.17;;;;;;;20.20;57.41;95959.44;6915114;28;20270;-79
2023/10/20 00:18:54;;;;;;;3.63;3.33;;;;;;;20.23;57.94;95947.81;6915215;28;20286;-79
2023/10/20 00:22:16;;;;;;;3.50;3.20;;;;;;;19.44;60.12;95949.00;6892357;28;20299;-80
2023/10/20 00:25:38;;;;;;;3.80;3.40;;;;;;;20.04;58.69;95944.72;6914939;28;20219;-79
2023/10/20 00:29:00;;;;;;;3.27;2.97;;;;;;;19.87;59.22;95939.41;6915121;28;20211;-79
2023/10/20 00:32:23;;;;;;;3.83;3.17;;;;;;;19.54;59.90;95940.44;6914238;28;20228;-79
2023/10/20 00:35:44;;;;;;;3.30;3.00;;;;;;;20.07;58.46;95946.03;6913492;28;20255;-79
2023/10/20 00:39:07;;;;;;;3.73;2.87;;;;;;;19.94;58.77;95947.06;6914110;28;20215;-79
2023/10/20 00:42:30;;;;;;;3.53;3.10;;;;;;;19.72;59.81;95950.13;6908967;28;20238;-79
2023/10/20 00:45:52;;;;;;;3.90;3.60;;;;;;;19.28;61.45;95928.84;6912924;28;20239;-79
2023/10/20 00:49:15;;;;;;;4.37;3.93;;;;;;;19.09;61.57;95931.97;6913198;28;20223;-79
2023/10/20 00:52:37;;;;;;;5.30;3.60;;;;;;;19.16;61.00;95920.53;6913723;28;20237;-78
2023/10/20 00:56:00;;;;;;;4.20;3.70;;;;;;;18.99;62.24;95915.16;6913850;28;20310;-79
2023/10/20 00:59:21;;;;;;;4.53;3.30;;;;;;;19.55;60.73;95923.72;6914076;28;20210;-79
2023/10/20 01:02:43;;;;;;;3.70;3.27;;;;;;;19.53;60.54;95893.19;6913478;28;20199;-79
2023/10/20 01:06:06;;;;;;;4.57;3.30;;;;;;;19.42;60.33;95891.97;6913997;28;20228;-78
2023/10/20 01:09:28;;;;;;;3.93;3.20;;;;;;;18.76;63.04;95891.97;6913962;28;20262;-78
2023/10/20 01:12:49;;;;;;;3.63;2.93;;;;;;;19.40;60.35;95880.56;6913449;28;20322;-78
2023/10/20 01:16:11;;;;;;;2.90;2.60;;;;;;;19.89;58.73;95878.91;6913873;28;20315;-79
2023/10/20 01:19:33;;;;;;;3.40;2.90;;;;;;;19.57;59.36;95876.94;6914094;28;20208;-79
2023/10/20 01:22:58;;;;;;;3.50;3.20;;;;;;;19.56;60.34;95875.31;6913262;28;20625;-78
2023/10/20 01:26:24;;;;;;;4.23;3.00;;;;;;;19.63;59.93;95872.88;6913745;28;20725;-79
2023/10/20 01:29:46;;;;;;;3.40;3.10;;;;;;;19.45;60.16;95866.72;6907145;28;20200;-78
2023/10/20 01:33:07;;;;;;;4.07;3.00;;;;;;;19.42;59.55;95861.91;6914327;28;20375;-79
2023/10/20 01:36:29;;;;;;;4.10;2.93;;;;;;;19.63;58.85;95851.78;6914989;28;20235;-79
2023/10/20 01:39:50;;;;;;;3.90;3.13;;;;;;;19.37;58.33;95840.25;6915331;28;20207;-79
2023/10/20 01:43:13;;;;;;;3.73;2.90;;;;;;;19.94;57.58;95834.97;6916423;28;20259;-79
2023/10/20 01:46:35;;;;;;;2.80;2.60;;;;;;;19.94;57.64;95807.63;6917470;28;20280;-79
2023/10/20 01:49:56;;;;;;;5.30;3.00;;;;;;;19.89;57.75;95791.41;6913595;28;20201;-78
2023/10/20 01:53:18;;;;;;;4.07;2.60;;;;;;;20.44;56.45;95781.66;6917808;28;20261;-78
2023/10/20 01:56:39;;;;;;;3.27;2.97;;;;;;;20.45;56.09;95769.56;6918315;28;20254;-79
2023/10/20 02:00:03;;;;;;;3.27;3.00;;;;;;;19.73;58.00;95754.91;6917833;28;20342;-79
2023/10/20 02:03:25;;;;;;;4.23;3.83;;;;;;;19.81;57.68;95771.22;6917646;28;20684;-79
2023/10/20 02:06:47;;;;;;;4.50;3.00;;;;;;;19.63;58.79;95760.81;6918120;28;20796;-79
2023/10/20 02:10:09;;;;;;;7.07;3.00;;;;;;;19.61;58.83;95736.53;6917840;28;20261;-78
2023/10/20 02:13:30;;;;;;;4.40;3.10;;;;;;;19.78;58.43;95724.63;6917528;28;20325;-78
2023/10/20 02:16:54;;;;;;;3.70;2.93;;;;;;;20.05;57.67;95704.88;6917906;28;20227;-79
2023/10/20 02:20:21;;;;;;;5.40;3.10;;;;;;;19.88;57.50;95685.94;6908943;28;20211;-79
2023/10/20 02:23:43;;;;;;;3.40;3.07;;;;;;;19.90;57.78;95667.25;6894980;28;20206;-78
2023/10/20 02:27:05;;;;;;;3.87;3.00;;;;;;;19.99;57.36;95668.72;6917287;28;20323;-79
2023/10/20 02:30:26;;;;;;;3.50;3.20;;;;;;;19.96;57.76;95657.69;6917796;28;20550;-78
2023/10/20 02:33:49;;;;;;;3.70;2.87;;;;;;;19.88;57.53;95651.16;6916911;28;20227;-79
2023/10/20 02:37:12;;;;;;;3.03;2.83;;;;;;;19.62;57.97;95622.53;6917175;28;20224;-79
2023/10/20 02:40:33;;;;;;;4.60;3.20;;;;;;;19.93;57.67;95661.09;6915202;28;20200;-79
2023/10/20 02:43:55;;;;;;;3.23;2.93;;;;;;;20.03;57.47;95663.38;6926387;28;20589;-79
2023/10/20 02:47:22;;;;;;;4.10;2.97;;;;;;;19.69;57.43;95631.00;6915975;28;20378;-79
2023/10/20 02:50:45;;;;;;;4.40;3.23;;;;;;;19.86;58.08;95664.38;6895783;28;20199;-78
2023/10/20 02:54:09;;;;;;;3.40;3.10;;;;;;;19.87;57.95;95649.56;6915641;28;20223;-79
2023/10/20 02:57:31;;;;;;;3.50;3.20;;;;;;;20.11;57.45;95652.34;6916814;28;20226;-79
2023/10/20 03:00:54;;;;;;;4.60;3.00;;;;;;;20.05;57.99;95674.78;6916987;28;20702;-79
2023/10/20 03:04:17;;;;;;;3.47;3.07;;;;;;;20.07;57.81;95669.81;6915507;28;21029;-78
2023/10/20 03:07:40;;;;;;;3.40;3.10;;;;;;;20.09;57.51;95676.53;6915974;28;20220;-78
2023/10/20 03:11:01;;;;;;;5.43;3.53;;;;;;;20.06;57.78;95666.28;6916503;28;20672;-79
2023/10/20 03:14:23;;;;;;;3.47;2.80;;;;;;;19.87;58.44;95670.66;6915385;28;20258;-78
2023/10/20 03:17:44;;;;;;;3.63;2.93;;;;;;;19.46;59.96;95657.13;6916274;28;20306;-79
2023/10/20 03:21:07;;;;;;;6.30;3.40;;;;;;;19.92;58.78;95648.59;6915249;28;20202;-78
2023/10/20 03:24:30;;;;;;;4.17;3.43;;;;;;;20.09;58.20;95649.19;6915269;28;20215;-78
2023/10/20 03:27:52;;;;;;;4.17;3.40;;;;;;;19.79;58.67;95620.41;6916342;28;20366;-79
2023/10/20 03:31:13;;;;;;;4.33;3.30;;;;;;;19.85;59.04;95634.66;6888565;28;20208;-78
2023/10/20 03:34:35;;;;;;;3.57;3.23;;;;;;;19.87;58.98;95635.91;6887997;28;20347;-78
2023/10/20 03:37:58;;;;;;;5.67;3.60;;;;;;;19.76;59.29;95634.75;6892824;28;20231;-78
2023/10/20 03:41:22;;;;;;;3.50;3.20;;;;;;;19.20;59.16;95550.84;6915055;28;20200;-78
2023/10/20 03:44:46;;;;;;;4.17;3.37;;;;;;;19.72;59.29;95594.78;6914926;28;20208;-78
2023/10/20 03:48:09;;;;;;;5.20;3.90;;;;;;;19.70;59.11;95572.47;6923651;28;20760;-79
2023/10/20 03:51:30;;;;;;;4.37;3.97;;;;;;;19.66;59.97;95582.47;6942208;28;20221;-78
2023/10/20 03:54:54;;;;;;;4.10;3.70;;;;;;;19.42;60.50;95534.06;6932271;28;20719;-79
2023/10/20 03:58:17;;;;;;;4.67;3.40;;;;;;;19.27;61.57;95544.88;6915153;28;20231;-78
2023/10/20 04:01:39;;;;;;;4.13;3.73;;;;;;;19.20;61.44;95536.38;6914657;28;20211;-78
2023/10/20 04:05:00;;;;;;;5.97;3.50;;;;;;;18.88;62.50;95537.22;6914766;28;20242;-78
2023/10/20 04:08:23;;;;;;;3.60;3.30;;;;;;;18.65;62.91;95509.50;6915296;28;20369;-79
2023/10/20 04:11:44;;;;;;;4.83;4.00;;;;;;;18.85;62.25;95530.50;6915020;28;20375;-78
2023/10/20 04:15:09;;;;;;;4.03;3.63;;;;;;;19.41;61.07;95512.56;6913377;28;20311;-78
2023/10/20 04:18:32;;;;;;;4.57;4.17;;;;;;;19.13;62.08;95495.19;6915347;28;20211;-78
2023/10/20 04:21:54;;;;;;;5.23;3.87;;;;;;;19.47;60.56;95479.22;6914851;28;20214;-79
2023/10/20 04:25:17;;;;;;;4.40;3.93;;;;;;;19.30;60.72;95438.47;6913918;28;20366;-78
2023/10/20 04:28:42;;;;;;;4.23;3.63;;;;;;;19.46;60.75;95454.97;6915165;28;20290;-79
2023/10/20 04:47:20;;;;;;;4.60;4.00;;;;;;;18.26;63.59;95390.00;6881202;28;20227;-78
2023/10/20 04:54:22;;;;;;;5.20;4.30;;;;;;;18.97;61.67;95393.22;6905207;28;20721;-78
2023/10/20 04:57:52;;;;;;;9.23;4.83;;;;;;;19.09;61.90;95383.13;6907007;28;20235;-78
2023/10/20 05:01:21;;;;;;;5.20;4.70;;;;;;;18.87;61.75;95371.84;6925717;28;20209;-78
2023/10/20 05:04:46;;;;;;;6.10;4.53;;;;;;;18.84;61.89;95350.69;6913785;28;20688;-78
2023/10/20 05:08:17;;;;;;;7.00;5.30;;;;;;;18.74;62.21;95337.50;6916657;28;20235;-77
2023/10/20 05:11:39;;;;;;;5.60;5.10;;;;;;;17.93;64.52;95306.63;6894213;28;20199;-77
2023/10/20 05:15:00;;;;;;;5.07;4.67;;;;;;;18.53;62.56;95299.41;6913356;28;20204;-78
2023/10/20 05:18:22;;;;;;;6.10;5.60;;;;;;;18.11;62.59;95287.00;6918835;28;20253;-78
2023/10/20 05:21:43;;;;;;;6.73;6.03;;;;;;;18.44;62.12;95285.06;6914017;28;20351;-77
2023/10/20 05:25:09;;;;;;;7.30;5.73;;;;;;;17.74;63.66;95268.19;6914165;28;20202;-77
2023/10/20 05:28:33;;;;;;;8.73;6.33;;;;;;;17.87;63.10;95267.88;6921055;28;20269;-78
2023/10/20 05:31:55;;;;;;;8.07;6.60;;;;;;;17.69;63.41;95260.22;6918982;28;20337;-77
2023/10/20 05:35:16;;;;;;;6.93;6.23;;;;;;;17.92;62.62;95254.03;6918833;28;20296;-77
2023/10/20 05:38:38;;;;;;;7.77;6.93;;;;;;;18.22;61.55;95250.00;6919114;28;20293;-78
2023/10/20 05:42:04;;;;;;;8.90;7.33;;;;;;;17.70;62.99;95253.66;6921117;28;20213;-78
2023/10/20 05:45:29;;;;;;;9.60;8.33;;;;;;;16.97;65.23;95238.88;6921243;28;20885;-77
2023/10/20 05:48:50;;;;;;;11.30;8.80;;;;;;;17.48;64.34;95222.13;6923404;28;20218;-77
2023/10/20 05:52:12;;;;;;;9.63;8.70;;;;;;;17.25;63.12;95144.66;6919984;28;20253;-79
2023/10/20 05:55:34;;;;;;;13.63;8.93;;;;;;;16.80;66.49;95156.59;6921595;28;20625;-77
2023/10/20 05:58:57;;;;;;;9.43;8.47;;;;;;;16.88;65.29;95158.44;6920792;28;20213;-77
2023/10/20 06:02:18;;;;;;;10.53;9.43;;;;;;;17.41;64.02;95163.91;6904303;28;20202;-78
2023/10/20 06:05:40;;;;;;;9.53;8.63;;;;;;;17.90;62.03;95149.22;6927901;28;20720;-78
2023/10/20 06:09:01;;;;;;;10.47;9.33;;;;;;;17.87;62.48;95117.22;6925098;28;20311;-78
2023/10/20 06:12:23;;;;;;;10.40;9.40;;;;;;;17.65;61.54;95098.59;6919719;28;20230;-78
2023/10/20 06:15:46;;;;;;;13.37;9.43;;;;;;;17.63;61.93;95077.13;6918073;28;20275;-78
2023/10/20 06:19:10;;;;;;;10.30;9.30;;;;;;;17.65;61.34;95113.00;6913704;28;20206;-78
2023/10/20 06:22:31;;;;;;;10.80;9.23;;;;;;;17.95;60.97;95099.97;6902784;28;20269;-78
2023/10/20 06:25:53;;;;;;;10.33;8.97;;;;;;;17.40;62.78;95080.63;6919370;28;20304;-79
2023/10/20 06:29:26;;;;;;;11.90;9.70;;;;;;;17.44;61.79;95059.75;6919846;28;20291;-78
2023/10/20 06:32:56;;;;;;;11.43;10.33;;;;;;;17.80;61.42;95079.63;6918654;28;20575;-79
2023/10/20 06:36:24;;;;;;;10.80;9.70;;;;;;;17.79;61.14;95091.69;6919100;28;20569;-78
2023/10/20 06:39:45;;;;;;;13.97;10.27;;;;;;;17.66;62.07;95083.81;6920338;28;20246;-78
2023/10/20 06:43:07;;;;;;;10.57;9.43;;;;;;;18.25;59.88;95052.22;6916405;28;20298;-79
2023/10/20 06:46:28;;;;;;;11.57;9.53;;;;;;;18.15;60.23;95058.94;6919383;28;20321;-78
2023/10/20 06:49:51;;;;;;;12.40;9.83;;;;;;;18.11;60.02;95028.06;6918373;28;20857;-79
2023/10/20 06:53:13;;;;;;;10.30;8.60;;;;;;;17.47;62.47;95005.44;6916389;28;20365;-78
2023/10/20 06:56:36;;;;;;;11.03;8.97;;;;;;;17.61;61.40;94991.44;6917727;28;20230;-79
2023/10/20 06:59:58;;;;;;;10.87;9.73;;;;;;;17.37;62.46;95007.75;6919622;28;20202;-79
2023/10/20 07:03:20;;;;;;;10.97;9.73;;;;;;;17.31;62.43;95014.56;6907061;28;20291;-79
2023/10/20 07:06:43;;;;;;;10.83;9.73;;;;;;;17.88;61.45;95009.81;6920279;28;20230;-79
2023/10/20 07:10:05;;;;;;;11.23;10.13;;;;;;;18.04;61.09;94999.81;6907646;28;20569;-79
2023/10/20 07:13:26;;;;;;;10.83;9.30;;;;;;;17.81;61.17;94993.25;6903698;28;20230;-78
2023/10/20 07:16:48;;;;;;;11.17;9.47;;;;;;;18.54;59.11;94987.31;6915022;28;20354;-78
2023/10/20 07:20:10;;;;;;;10.30;9.30;;;;;;;18.41;59.59;94966.66;6915980;28;20349;-78
2023/10/20 07:23:33;;;;;;;11.50;10.40;;;;;;;17.72;61.22;94968.06;6915061;28;20343;-78
2023/10/20 07:26:55;;;;;;;16.43;11.47;;;;;;;18.15;60.22;94974.44;6915722;28;20230;-78
2023/10/20 07:30:17;;;;;;;11.93;10.07;;;;;;;17.87;59.89;94940.13;6915940;28;20621;-78
2023/10/20 07:33:39;;;;;;;14.90;10.43;;;;;;;18.54;59.04;95000.94;6916630;28;20233;-78
2023/10/20 07:37:00;;;;;;;12.03;10.10;;;;;;;18.32;59.90;94981.56;6915393;28;20239;-78
2023/10/20 07:40:26;;;;;;;12.63;10.43;;;;;;;18.40;60.06;94991.56;6915243;28;20371;-78
2023/10/20 07:43:49;;;;;;;12.03;10.83;;;;;;;18.27;60.42;94985.31;6921457;28;20239;-77
2023/10/20 07:47:11;;;;;;;12.17;10.63;;;;;;;18.73;59.03;94973.78;6915860;28;20287;-78
2023/10/20 07:50:32;;;;;;;11.37;9.97;;;;;;;18.40;60.29;94978.69;6917859;28;20235;-78
2023/10/20 07:53:54;;;;;;;10.27;9.27;;;;;;;18.97;59.18;94981.03;6908696;28;20263;-79
2023/10/20 07:57:18;;;;;;;10.80;9.70;;;;;;;19.10;58.25;94980.63;6915313;28;20234;-80
2023/10/20 08:00:39;;;;;;;11.23;8.90;;;;;;;19.50;57.26;94988.66;6906383;28;20221;-79
2023/10/20 08:04:02;;;;;;;12.70;10.17;;;;;;;19.54;56.81;94990.38;6913645;28;20203;-78
2023/10/20 08:07:24;;;;;;;10.13;9.03;;;;;;;19.59;56.96;94986.56;6915404;28;20235;-79
2023/10/20 08:10:45;;;;;;;11.57;9.07;;;;;;;19.83;56.20;94989.91;6908167;28;20202;-79
2023/10/20 08:14:09;;;;;;;10.03;9.00;;;;;;;20.04;55.70;94989.59;6914659;28;20236;-78
2023/10/20 08:17:30;;;;;;;11.13;10.03;;;;;;;20.00;54.86;94989.50;6911978;28;20227;-78
2023/10/20 08:20:52;;;;;;;11.20;10.00;;;;;;;19.33;56.78;94980.88;6915126;28;20208;-78
2023/10/20 08:24:14;;;;;;;11.73;10.60;;;;;;;19.32;57.16;95028.41;6906529;28;20211;-78
2023/10/20 08:27:35;;;;;;;11.73;10.37;;;;;;;20.16;55.67;95022.31;6902611;28;20239;-79
2023/10/20 08:31:07;;;;;;;10.57;9.57;;;;;;;19.55;56.61;95030.19;6910418;28;20246;-78
2023/10/20 08:34:28;;;;;;;11.37;10.27;;;;;;;19.70;56.36;95032.13;6909216;28;20306;-80
2023/10/20 08:37:50;;;;;;;12.60;9.63;;;;;;;19.73;57.19;95045.09;6905186;28;20310;-78
2023/10/20 08:41:13;;;;;;;13.30;8.90;;;;;;;20.10;56.94;95056.56;6905358;28;20285;-78
2023/10/20 08:44:34;;;;;;;20.70;9.80;;;;;;;20.49;56.04;95066.41;6906620;28;20200;-78
2023/10/20 08:47:57;;;;;;;9.60;8.70;;;;;;;20.58;55.08;95032.22;6913255;28;20318;-78
2023/10/20 08:51:19;;;;;;;10.07;8.93;;;;;;;20.75;54.75;95053.69;6889562;28;20255;-78
2023/10/20 08:54:41;;;;;;;10.07;8.17;;;;;;;20.71;54.78;95071.19;6902974;28;20299;-79
2023/10/20 08:58:03;;;;;;;9.87;8.37;;;;;;;20.91;54.61;95083.75;6911832;28;20227;-80
2023/10/20 09:01:24;;;;;;;9.90;9.00;;;;;;;21.32;53.24;95111.22;6907190;28;20212;-80
2023/10/20 09:04:51;;;;;;;10.70;9.47;;;;;;;21.39;51.68;95172.44;6904067;28;20216;-79
2023/10/20 09:08:13;;;;;;;12.17;10.60;;;;;;;20.68;52.73;95182.19;6917784;28;20237;-79
2023/10/20 09:11:34;;;;;;;11.40;10.20;;;;;;;20.84;52.70;95218.56;6911668;28;20204;-79
2023/10/20 09:14:56;;;;;;;15.63;12.80;;;;;;;21.01;52.09;95234.63;6911839;28;20231;-80
2023/10/20 09:18:18;;;;;;;13.83;12.30;;;;;;;21.44;50.10;95251.63;6913084;28;20272;-80
2023/10/20 09:21:46;;;;;;;13.47;11.83;;;;;;;21.30;50.07;95245.84;6903995;28;20244;-79
2023/10/20 09:25:09;;;;;;;13.67;11.33;;;;;;;21.42;49.57;95221.03;6914774;28;20584;-80
2023/10/20 09:28:32;;;;;;;13.70;12.43;;;;;;;21.10;50.41;95246.16;6916894;28;20651;-77
2023/10/20 09:31:54;;;;;;;12.13;10.93;;;;;;;21.48;50.11;95249.75;6917217;28;20235;-80
2023/10/20 09:35:15;;;;;;;12.43;11.13;;;;;;;21.47;50.30;95234.44;6908647;28;20321;-79
2023/10/20 09:38:39;;;;;;;12.47;11.23;;;;;;;21.01;51.82;95222.84;6915333;28;20714;-80
2023/10/20 09:42:02;;;;;;;12.30;11.00;;;;;;;21.66;52.04;95207.03;6906720;28;20671;-79
2023/10/20 09:45:30;;;;;;;11.40;10.23;;;;;;;21.93;51.04;95211.50;6916233;28;20211;-81
2023/10/20 09:48:52;;;;;;;10.13;9.13;;;;;;;21.73;51.66;95228.34;6897460;28;20211;-80
2023/10/20 09:52:14;;;;;;;10.17;9.17;;;;;;;21.87;50.37;95236.84;6903085;28;20623;-79
2023/10/20 09:55:40;;;;;;;10.50;9.23;;;;;;;21.55;51.53;95233.44;6883027;28;20228;-81
2023/10/20 09:59:06;;;;;;;9.60;7.97;;;;;;;21.69;51.59;95252.16;6914590;28;22171;-80
2023/10/20 10:02:28;;;;;;;9.33;8.13;;;;;;;21.60;52.55;95268.00;6918010;28;20208;-81
2023/10/20 10:05:50;;;;;;;8.10;7.30;;;;;;;20.98;52.40;95216.16;6929262;28;20219;-80
2023/10/20 10:09:11;;;;;;;7.77;7.07;;;;;;;21.58;52.50;95268.38;6892634;28;20291;-80
2023/10/20 10:12:34;;;;;;;7.90;7.10;;;;;;;21.65;52.43;95279.47;6907382;28;20250;-80
2023/10/20 10:15:56;;;;;;;7.87;7.00;;;;;;;21.85;51.46;95296.75;6913939;28;20322;-79
2023/10/20 10:19:18;;;;;;;7.10;6.40;;;;;;;21.59;52.90;95307.53;6910147;28;20368;-80
2023/10/20 10:22:42;;;;;;;6.93;6.30;;;;;;;21.76;52.11;95296.97;6919926;28;20265;-80
2023/10/20 10:26:13;;;;;;;7.57;5.97;;;;;;;22.03;52.28;95295.16;6915758;28;20251;-83
2023/10/20 10:29:50;;;;;;;6.77;5.20;;;;;;;22.12;50.94;95304.75;6917586;28;20207;-81
2023/10/20 10:33:12;;;;;;;5.07;4.57;;;;;;;21.94;51.71;95331.03;6917912;28;20212;-80
2023/10/20 10:36:43;;;;;;;5.63;4.43;;;;;;;22.44;49.90;95321.84;6916488;28;20308;-80
2023/10/20 10:40:10;;;;;;;4.93;4.00;;;;;;;22.02;50.90;95327.28;6915595;28;20242;-81
2023/10/20 10:43:31;;;;;;;4.37;3.90;;;;;;;21.92;51.51;95327.06;6917441;28;20293;-81
2023/10/20 10:46:54;;;;;;;4.53;4.13;;;;;;;22.34;50.42;95344.38;6914418;28;20231;-82
2023/10/20 10:50:19;;;;;;;4.80;3.50;;;;;;;22.09;51.31;95354.06;6919594;28;20290;-81
2023/10/20 10:53:43;;;;;;;4.53;4.00;;;;;;;21.45;53.34;95351.88;6908070;28;20647;-80
2023/10/20 10:57:05;;;;;;;4.10;3.80;;;;;;;21.67;53.30;95361.41;6915813;28;20219;-80
2023/10/20 11:00:28;;;;;;;4.53;4.13;;;;;;;22.20;51.82;95338.63;6905319;28;20549;-82
2023/10/20 11:03:51;;;;;;;4.40;4.00;;;;;;;22.07;52.48;95343.44;6914127;28;20579;-81
2023/10/20 11:07:13;;;;;;;6.40;4.07;;;;;;;22.11;52.95;95370.94;6917020;28;20720;-82
2023/10/20 11:10:37;;;;;;;4.30;3.60;;;;;;;22.02;52.87;95357.44;6912500;28;20204;-83
2023/10/20 11:13:59;;;;;;;4.17;3.77;;;;;;;22.14;52.77;95356.53;6918061;28;20710;-80
2023/10/20 11:17:20;;;;;;;4.30;3.53;;;;;;;22.08;53.34;95363.44;6919394;28;20236;-81
2023/10/20 11:20:47;;;;;;;8.13;3.57;;;;;;;22.06;53.72;95383.00;6914037;28;20272;-82
2023/10/20 11:24:09;;;;;;;3.07;2.70;;;;;;;21.73;54.69;95407.34;6916406;28;20226;-82
2023/10/20 11:27:40;;;;;;;3.53;3.23;;;;;;;21.66;54.66;95414.63;6917158;28;20236;-81
2023/10/20 11:31:02;;;;;;;3.43;3.13;;;;;;;21.38;53.91;95346.25;6917715;28;20212;-81
2023/10/20 11:34:25;;;;;;;2.90;2.70;;;;;;;21.78;53.88;95393.38;6916501;28;20227;-81
2023/10/20 11:37:48;;;;;;;4.13;2.50;;;;;;;21.80;53.58;95407.53;6919700;28;20216;-82
2023/10/20 11:41:10;;;;;;;3.17;2.80;;;;;;;21.54;54.32;95415.50;6915229;28;20203;-81
2023/10/20 11:44:31;;;;;;;2.60;2.40;;;;;;;22.28;52.78;95420.72;6923243;28;20284;-81
2023/10/20 11:47:53;;;;;;;2.33;2.13;;;;;;;22.20;52.49;95429.94;6918196;28;20651;-79
2023/10/20 11:51:14;;;;;;;4.10;2.63;;;;;;;22.01;52.28;95434.63;6916378;28;20265;-81
2023/10/20 11:54:37;;;;;;;2.50;2.30;;;;;;;21.95;52.05;95428.63;6918525;28;20251;-81
2023/10/20 11:58:00;;;;;;;1.67;1.17;;;;;;;21.67;52.08;95421.72;6920913;28;20370;-84
2023/10/20 12:01:23;;;;;;;1.20;1.00;;;;;;;21.60;51.86;95413.31;6918134;28;20223;-83
2023/10/20 12:04:45;;;;;;;2.63;0.80;;;;;;;21.92;51.43;95450.47;6911485;28;20227;-81
2023/10/20 12:08:06;;;;;;;0.70;0.70;;;;;;;22.04;50.82;95453.09;6929317;28;20239;-82
2023/10/20 12:11:29;;;;;;;0.70;0.70;;;;;;;21.73;51.46;95469.63;6929668;28;20223;-84
2023/10/20 12:14:51;;;;;;;0.60;0.60;;;;;;;22.18;50.62;95458.91;6914500;28;20608;-82
2023/10/20 12:18:13;;;;;;;1.53;1.43;;;;;;;22.19;50.10;95469.50;6926593;28;20275;-80
2023/10/20 12:21:34;;;;;;;1.53;0.93;;;;;;;22.16;50.19;95462.03;6912297;28;20205;-81
2023/10/20 12:24:56;;;;;;;0.80;0.80;;;;;;;22.48;49.89;95466.25;6905412;28;20347;-81
2023/10/20 12:28:19;;;;;;;0.97;0.97;;;;;;;21.71;51.56;95458.25;6916774;28;20227;-80
2023/10/20 12:31:40;;;;;;;1.50;0.90;;;;;;;22.44;50.22;95445.38;6915733;28;20234;-81
2023/10/20 12:35:04;;;;;;;0.80;0.80;;;;;;;22.53;48.83;95410.28;6913756;28;20806;-81
2023/10/20 12:38:27;;;;;;;0.70;0.70;;;;;;;22.71;48.79;95456.13;6916423;28;20310;-80
2023/10/20 12:41:49;;;;;;;0.60;0.60;;;;;;;22.63;48.81;95462.66;6917530;28;20208;-81
2023/10/20 12:45:12;;;;;;;1.00;0.87;;;;;;;22.80;48.31;95484.19;6916402;28;20294;-80
2023/10/20 12:48:33;;;;;;;0.70;0.70;;;;;;;22.59;49.35;95494.72;6912507;28;20334;-81
2023/10/20 12:51:55;;;;;;;1.83;1.27;;;;;;;22.74;48.94;95493.06;6894333;28;20233;-81
2023/10/20 12:55:17;;;;;;;1.70;1.60;;;;;;;22.83;49.04;95499.13;6896690;28;20228;-81
2023/10/20 12:58:38;;;;;;;1.93;1.73;;;;;;;22.72;48.91;95496.16;6914272;28;20291;-79
2023/10/20 13:02:04;;;;;;;1.50;1.40;;;;;;;22.39;48.71;95462.91;6914788;28;20354;-80
2023/10/20 13:05:25;;;;;;;0.53;0.53;;;;;;;22.69;48.27;95474.94;6915316;28;20187;-80
2023/10/20 13:08:47;;;;;;;0.50;0.50;;;;;;;22.43;48.49;95499.47;6909234;28;20215;-80
2023/10/20 13:12:08;;;;;;;0.70;0.70;;;;;;;22.92;47.57;95500.50;6912278;28;20692;-80
2023/10/20 13:15:30;;;;;;;1.70;0.80;;;;;;;22.81;47.31;95485.75;6894688;28;20695;-80
2023/10/20 13:18:53;;;;;;;0.80;0.80;;;;;;;22.83;47.17;95505.41;6903932;28;20196;-80
2023/10/20 13:22:14;;;;;;;0.83;0.83;;;;;;;22.92;47.53;95505.19;6908663;28;20398;-80
2023/10/20 13:25:37;;;;;;;1.13;1.13;;;;;;;22.80;46.99;95499.84;6903844;28;20547;-79
2023/10/20 13:28:58;;;;;;;1.23;1.23;;;;;;;22.94;46.75;95514.66;6903520;28;20251;-80
2023/10/20 13:32:20;;;;;;;1.00;1.00;;;;;;;22.87;47.09;95506.28;6923855;28;20204;-80
2023/10/20 13:35:43;;;;;;;0.87;0.67;;;;;;;22.78;46.12;95497.47;6931400;28;20272;-80
2023/10/20 13:39:07;;;;;;;0.73;0.73;;;;;;;23.05;45.17;95526.66;6912453;28;20213;-79
2023/10/20 13:42:28;;;;;;;0.60;0.60;;;;;;;22.67;45.48;95534.88;6907755;28;20212;-80
2023/10/20 13:45:50;;;;;;;0.60;0.60;;;;;;;22.51;46.07;95541.59;6926675;28;20220;-79
2023/10/20 13:49:11;;;;;;;0.80;0.80;;;;;;;22.70;46.86;95538.88;6920019;28;20305;-79
2023/10/20 13:52:34;;;;;;;0.60;0.60;;;;;;;21.87;46.91;95520.13;6921649;28;20207;-79
2023/10/20 13:55:56;;;;;;;0.50;0.50;;;;;;;22.39;45.71;95555.44;6920781;28;20235;-80
2023/10/20 13:59:17;;;;;;;1.17;0.70;;;;;;;22.22;46.86;95548.41;6917455;28;20600;-80
2023/10/20 14:02:39;;;;;;;0.60;0.60;;;;;;;22.13;46.22;95563.47;6908770;28;20235;-80
2023/10/20 14:06:02;;;;;;;1.23;0.90;;;;;;;22.18;47.40;95572.19;6916758;28;20224;-80
2023/10/20 14:09:25;;;;;;;2.00;0.80;;;;;;;22.38;46.24;95562.88;6915019;28;20253;-80
2023/10/20 14:12:47;;;;;;;0.60;0.60;;;;;;;22.50;46.67;95612.22;6915475;28;20200;-79
2023/10/20 14:16:09;;;;;;;0.63;0.63;;;;;;;22.06;46.70;95629.94;6916661;28;20255;-79
2023/10/20 14:19:31;;;;;;;0.70;0.70;;;;;;;21.93;46.30;95627.63;6911378;28;20216;-80
2023/10/20 14:22:52;;;;;;;1.90;0.80;;;;;;;22.05;46.19;95639.31;6899785;28;20637;-79
2023/10/20 14:26:15;;;;;;;0.80;0.80;;;;;;;22.34;46.65;95662.75;6915871;28;20306;-80
2023/10/20 14:29:37;;;;;;;0.70;0.70;;;;;;;21.98;46.63;95661.09;6917254;28;20247;-79
2023/10/20 14:32:58;;;;;;;0.77;0.77;;;;;;;21.84;47.15;95693.63;6916775;28;20724;-79
2023/10/20 14:36:20;;;;;;;1.97;1.77;;;;;;;21.90;47.45;95699.66;6909162;28;20235;-79
2023/10/20 14:39:41;;;;;;;0.83;0.83;;;;;;;21.38;48.19;95720.88;6921151;28;20298;-78
2023/10/20 14:43:05;;;;;;;1.90;1.70;;;;;;;21.07;49.17;95700.78;6916453;28;20208;-79
2023/10/20 14:46:27;;;;;;;1.00;1.00;;;;;;;21.19;49.41;95737.94;6916569;28;20220;-78
2023/10/20 14:49:48;;;;;;;0.97;0.90;;;;;;;20.59;48.82;95734.47;6917299;28;20348;-79
2023/10/20 14:53:10;;;;;;;1.30;0.60;;;;;;;20.47;50.34;95737.22;6917057;28;20242;-79
2023/10/20 14:56:32;;;;;;;1.47;1.00;;;;;;;20.29;52.82;95740.50;6916984;28;20270;-79
2023/10/20 14:59:55;;;;;;;1.13;0.90;;;;;;;20.30;53.00;95742.91;6916527;28;20587;-79
2023/10/20 15:03:19;;;;;;;2.90;0.80;;;;;;;20.59;51.68;95725.44;6916284;28;20338;-79
2023/10/20 15:06:41;;;;;;;0.93;0.90;;;;;;;20.26;52.09;95689.19;6910463;28;20591;-78
2023/10/20 15:10:02;;;;;;;1.17;0.70;;;;;;;20.58;52.46;95693.75;6916686;28;20291;-79
2023/10/20 15:13:25;;;;;;;9.30;7.20;;;;;;;20.04;55.18;95704.06;6914849;28;20204;-78
2023/10/20 15:16:48;;;;;;;2.90;2.20;;;;;;;20.41;55.48;95749.50;6916329;28;20690;-78
2023/10/20 15:20:10;;;;;;;2.13;1.90;;;;;;;20.60;54.38;95738.81;6912030;28;21040;-79
2023/10/20 15:23:32;;;;;;;2.87;1.50;;;;;;;20.49;55.34;95737.66;6915579;28;20208;-79
2023/10/20 15:26:56;;;;;;;1.07;1.07;;;;;;;20.13;57.02;95739.56;6915583;28;20223;-79
2023/10/20 15:30:18;;;;;;;1.00;1.00;;;;;;;19.94;57.25;95715.44;6917259;28;20243;-79
2023/10/20 15:33:41;;;;;;;1.83;1.43;;;;;;;20.25;56.80;95736.84;6915745;28;20242;-79
2023/10/20 15:37:02;;;;;;;2.60;2.40;;;;;;;20.20;57.18;95726.09;6908996;28;20255;-79
2023/10/20 15:40:25;;;;;;;2.47;2.27;;;;;;;20.26;57.27;95741.97;6917543;28;20291;-79
2023/10/20 15:43:46;;;;;;;3.63;3.00;;;;;;;20.16;58.79;95752.56;6905856;28;20211;-79
2023/10/20 15:47:08;;;;;;;3.17;2.80;;;;;;;19.86;59.84;95742.91;6909451;28;20266;-79
2023/10/20 15:50:32;;;;;;;4.33;2.77;;;;;;;19.92;59.45;95753.25;6916350;28;20271;-79
2023/10/20 15:53:53;;;;;;;3.13;2.63;;;;;;;19.81;59.29;95735.69;6911809;28;20574;-79
2023/10/20 15:57:15;;;;;;;4.30;3.40;;;;;;;20.19;59.23;95779.22;6923269;28;20253;-79
2023/10/20 16:00:37;;;;;;;5.07;3.40;;;;;;;19.79;59.86;95748.09;6917540;28;20674;-79
2023/10/20 16:03:58;;;;;;;4.90;3.50;;;;;;;19.88;60.78;95792.56;6915748;28;20223;-79
2023/10/20 16:07:21;;;;;;;5.63;3.73;;;;;;;19.87;61.12;95783.53;6915503;28;20307;-79
2023/10/20 16:10:43;;;;;;;4.87;3.27;;;;;;;19.73;61.72;95787.72;6905956;28;20298;-80